Time;durP1;ratioP1;P1;durP2;ratioP2;P2;SDS_P1;SDS_P2;PMS_P1;PMS_P2;Temp;Humidity;BMP_temperature;BMP_pressure;BME280_temperature;BME280_humidity;BME280_pressure;Samples;Min_cycle;Max_cycle;Signal;HPM_P1;HPM_P2
2021/05/22 00:00:41;;;;;;;;;0.00;0.00;;;;;13.85;52.56;100031.41;5012355;28;45552;-74
2021/05/22 00:03:07;;;;;;;;;1.00;1.00;;;;;13.81;52.82;100044.00;5010611;28;45460;-75
2021/05/22 00:05:32;;;;;;;;;0.00;0.00;;;;;13.79;52.44;100031.69;5009834;28;45565;-77
2021/05/22 00:07:58;;;;;;;;;0.00;0.00;;;;;13.76;52.50;100030.03;5012097;28;46136;-74
2021/05/22 00:10:23;;;;;;;;;1.00;0.00;;;;;13.75;52.83;100033.63;5010582;28;45624;-74
2021/05/22 00:12:49;;;;;;;;;0.00;0.00;;;;;13.72;52.88;100028.44;5010023;28;45601;-74
2021/05/22 00:15:17;;;;;;;;;2.00;0.00;;;;;13.69;53.22;100044.56;5006463;28;45802;-76
2021/05/22 00:17:43;;;;;;;;;1.00;0.00;;;;;13.66;52.77;100031.38;5009921;28;47778;-75
2021/05/22 00:20:10;;;;;;;;;2.00;2.00;;;;;13.66;52.82;100033.19;5012014;28;45448;-75
2021/05/22 00:22:36;;;;;;;;;1.33;1.33;;;;;13.62;53.00;100027.13;5010718;28;45426;-75
2021/05/22 00:25:02;;;;;;;;;0.00;0.00;;;;;13.58;52.75;100028.19;5009753;28;46751;-76
2021/05/22 00:27:28;;;;;;;;;1.00;1.00;;;;;13.59;53.19;100029.91;5009160;28;46945;-75
2021/05/22 00:29:53;;;;;;;;;0.00;0.00;;;;;13.60;52.74;100012.13;5009460;28;45884;-75
2021/05/22 00:32:18;;;;;;;;;2.67;0.00;;;;;13.62;53.34;100029.78;5012155;28;45634;-74
2021/05/22 00:34:44;;;;;;;;;0.00;0.00;;;;;13.61;52.89;100027.19;5012418;28;45622;-75
2021/05/22 00:37:09;;;;;;;;;2.33;1.00;;;;;13.62;53.46;100026.25;5009811;28;47267;-75
2021/05/22 00:39:35;;;;;;;;;2.00;1.00;;;;;13.62;53.11;100027.13;5010076;28;45461;-75
2021/05/22 00:42:04;;;;;;;;;1.33;0.33;;;;;13.62;52.87;100019.13;5037368;28;45637;-76
2021/05/22 00:44:31;;;;;;;;;1.00;0.00;;;;;13.60;53.07;100017.47;5009880;28;45640;-74
2021/05/22 00:47:01;;;;;;;;;1.00;1.00;;;;;13.58;53.21;100024.66;5008989;28;48442;-75
2021/05/22 00:49:27;;;;;;;;;0.33;0.33;;;;;13.57;52.99;100018.44;5020132;28;45473;-75
2021/05/22 00:51:53;;;;;;;;;0.00;0.00;;;;;13.54;53.15;100006.13;5011127;28;45550;-75
2021/05/22 00:54:19;;;;;;;;;1.00;1.00;;;;;13.52;53.41;100016.00;5008793;28;45440;-74
2021/05/22 00:56:47;;;;;;;;;1.00;1.00;;;;;13.50;53.33;100007.22;5007580;28;46557;-75
2021/05/22 00:59:15;;;;;;;;;0.00;0.00;;;;;13.50;53.69;100003.69;5006889;28;45557;-74
2021/05/22 01:01:42;;;;;;;;;0.67;0.67;;;;;13.47;54.07;100015.34;5010921;28;45805;-76
2021/05/22 01:04:09;;;;;;;;;1.33;1.33;;;;;13.47;53.85;100011.81;5010016;28;45497;-74
2021/05/22 01:06:34;;;;;;;;;0.00;0.00;;;;;13.43;54.08;100008.41;5010083;28;47306;-77
2021/05/22 01:09:07;;;;;;;;;0.33;0.33;;;;;13.47;53.86;100009.16;5010415;28;45712;-75
2021/05/22 01:11:39;;;;;;;;;0.00;0.00;;;;;13.54;54.26;100007.94;5008615;28;45592;-75
2021/05/22 01:14:39;;;;;;;;;1.00;1.00;;;;;13.55;54.19;100001.66;5011698;28;45564;-74
2021/05/22 01:17:05;;;;;;;;;0.00;0.00;;;;;13.56;54.51;100008.72;5004604;28;47336;-75
2021/05/22 01:20:00;;;;;;;;;0.00;0.00;;;;;13.58;54.16;100006.84;5009684;28;46297;-75
2021/05/22 01:22:28;;;;;;;;;2.00;1.00;;;;;13.59;54.47;100013.91;4988250;28;45646;-75
2021/05/22 01:25:00;;;;;;;;;0.00;0.00;;;;;13.62;54.70;100007.59;5012052;28;45573;-76
2021/05/22 01:27:26;;;;;;;;;0.67;0.67;;;;;13.62;54.58;100000.47;5009527;28;47347;-77
2021/05/22 01:29:53;;;;;;;;;0.00;0.00;;;;;13.64;54.70;100005.72;5008684;28;45648;-77
2021/05/22 01:32:18;;;;;;;;;1.00;1.00;;;;;13.68;55.12;100002.84;5009140;28;46959;-76
2021/05/22 01:34:44;;;;;;;;;2.00;1.00;;;;;13.70;54.64;100006.28;5005802;28;45598;-74
2021/05/22 01:37:09;;;;;;;;;1.00;1.00;;;;;13.71;54.75;100000.03;5009518;28;45739;-77
2021/05/22 01:39:35;;;;;;;;;1.00;1.00;;;;;13.71;55.05;100002.69;5010533;28;46037;-76
2021/05/22 01:42:00;;;;;;;;;1.67;1.67;;;;;13.74;54.63;99985.72;5011836;28;45644;-76
2021/05/22 01:44:30;;;;;;;;;1.00;1.00;;;;;13.74;54.11;99997.25;5011609;28;45411;-77
2021/05/22 01:46:57;;;;;;;;;0.00;0.00;;;;;13.74;54.96;100004.38;5008688;28;53210;-75
2021/05/22 01:49:27;;;;;;;;;0.00;0.00;;;;;13.69;54.97;99977.91;5009136;28;45690;-75
2021/05/22 01:51:54;;;;;;;;;0.00;0.00;;;;;13.70;55.14;99984.09;5011353;28;45532;-76
2021/05/22 01:54:22;;;;;;;;;0.00;0.00;;;;;13.72;54.71;99988.44;5010390;28;46282;-75
2021/05/22 01:56:49;;;;;;;;;0.00;0.00;;;;;13.73;54.89;99990.19;5009913;28;46812;-76
2021/05/22 01:59:16;;;;;;;;;1.00;0.00;;;;;13.76;54.51;99994.50;5006813;28;45626;-74
2021/05/22 02:01:42;;;;;;;;;0.00;0.00;;;;;13.76;54.58;99999.84;5011128;28;45495;-75
2021/05/22 02:04:07;;;;;;;;;0.33;0.33;;;;;13.75;54.54;99990.97;5009223;28;45733;-75
2021/05/22 02:06:41;;;;;;;;;0.00;0.00;;;;;13.72;55.31;100017.78;5010682;28;45450;-75
2021/05/22 02:09:07;;;;;;;;;1.00;0.00;;;;;13.70;54.83;99992.97;5008231;28;45521;-75
2021/05/22 02:11:36;;;;;;;;;1.33;0.00;;;;;13.68;54.74;100002.84;5008772;28;45527;-76
2021/05/22 02:14:05;;;;;;;;;0.67;0.67;;;;;13.69;54.91;99993.91;5007073;28;45471;-74
2021/05/22 02:16:35;;;;;;;;;0.00;0.00;;;;;13.66;55.57;100004.72;5009645;28;46090;-75
2021/05/22 02:19:03;;;;;;;;;0.67;0.67;;;;;13.68;55.31;100004.63;5007370;28;45696;-74
2021/05/22 02:21:30;;;;;;;;;2.00;0.00;;;;;13.70;55.19;100000.97;5023810;28;45471;-73
2021/05/22 02:23:57;;;;;;;;;2.00;0.67;;;;;13.68;55.46;100004.63;5009224;28;45463;-73
2021/05/22 02:26:25;;;;;;;;;1.00;1.00;;;;;13.71;55.58;100017.81;5012366;28;45799;-75
2021/05/22 02:28:52;;;;;;;;;0.00;0.00;;;;;13.70;55.35;100011.63;5012278;28;45516;-76
2021/05/22 02:31:18;;;;;;;;;0.00;0.00;;;;;13.71;55.53;99993.81;5012260;28;45557;-76
2021/05/22 02:33:45;;;;;;;;;1.67;1.67;;;;;13.72;55.15;99995.56;5010357;28;45570;-74
2021/05/22 02:36:12;;;;;;;;;3.00;1.00;;;;;13.74;55.14;99993.72;5010747;28;47289;-74
2021/05/22 02:38:49;;;;;;;;;1.00;1.00;;;;;13.73;55.59;99987.50;5006381;28;46010;-75
2021/05/22 02:41:16;;;;;;;;;0.00;0.00;;;;;13.76;55.29;99986.50;5010662;28;45422;-75
2021/05/22 02:43:46;;;;;;;;;0.33;0.33;;;;;13.76;55.74;99990.03;5010517;28;45653;-75
2021/05/22 02:46:14;;;;;;;;;4.33;1.67;;;;;13.80;55.41;99991.59;5007807;28;48495;-76
2021/05/22 02:48:39;;;;;;;;;0.00;0.00;;;;;13.80;55.35;99986.28;5010760;28;45801;-76
2021/05/22 02:51:07;;;;;;;;;2.00;0.00;;;;;13.77;55.92;99986.41;5012121;28;45699;-77
2021/05/22 02:53:35;;;;;;;;;0.67;0.00;;;;;13.71;55.75;99997.34;5007679;28;45438;-74
2021/05/22 02:56:03;;;;;;;;;0.33;0.33;;;;;13.65;55.89;99987.00;5007953;28;47028;-76
2021/05/22 02:58:29;;;;;;;;;0.67;0.67;;;;;13.66;55.66;99987.84;5008141;28;45721;-75
2021/05/22 03:00:55;;;;;;;;;0.00;0.00;;;;;13.65;55.98;99991.47;5008109;28;45499;-72
2021/05/22 03:03:22;;;;;;;;;0.33;0.00;;;;;13.59;56.33;99999.72;5008534;28;45387;-76
2021/05/22 03:05:50;;;;;;;;;0.00;0.00;;;;;13.58;56.09;99990.84;5009385;28;45653;-74
2021/05/22 03:08:16;;;;;;;;;0.67;0.00;;;;;13.58;56.42;100000.66;5008021;28;45735;-75
2021/05/22 03:10:42;;;;;;;;;2.00;2.00;;;;;13.53;56.58;99995.53;5008685;28;45652;-74
2021/05/22 03:13:09;;;;;;;;;2.00;2.00;;;;;13.55;56.80;100002.53;5006108;28;45623;-75
2021/05/22 03:15:35;;;;;;;;;1.00;1.00;;;;;13.59;56.32;99999.72;5009071;28;46615;-75
2021/05/22 03:18:00;;;;;;;;;2.00;0.00;;;;;13.55;56.53;99988.34;5008388;28;45545;-74
2021/05/22 03:20:27;;;;;;;;;0.00;0.00;;;;;13.61;56.37;100003.22;5009335;28;46632;-75
2021/05/22 03:22:52;;;;;;;;;0.00;0.00;;;;;13.62;56.68;100003.13;5008384;28;45677;-75
2021/05/22 03:25:18;;;;;;;;;0.00;0.00;;;;;13.65;56.50;99997.66;5010644;28;48075;-75
2021/05/22 03:27:43;;;;;;;;;2.00;2.00;;;;;13.61;56.35;99990.75;5011502;28;45564;-75
2021/05/22 03:30:10;;;;;;;;;0.33;0.33;;;;;13.59;56.26;99997.91;5012513;28;45491;-77
2021/05/22 03:32:35;;;;;;;;;2.00;1.00;;;;;13.58;56.95;99998.84;5011733;28;45436;-74
2021/05/22 03:35:01;;;;;;;;;0.00;0.00;;;;;13.59;56.20;99991.72;5009414;28;48533;-77
2021/05/22 03:37:27;;;;;;;;;1.00;1.00;;;;;13.59;56.72;100005.03;5009407;28;46020;-75
2021/05/22 03:39:52;;;;;;;;;2.00;0.00;;;;;13.58;56.58;99993.53;5012444;28;45716;-74
2021/05/22 03:42:18;;;;;;;;;2.00;0.67;;;;;13.61;56.29;100000.53;5017314;28;45858;-76
2021/05/22 03:44:43;;;;;;;;;1.00;1.00;;;;;13.61;56.58;99995.22;5011574;28;45569;-76
2021/05/22 03:47:09;;;;;;;;;1.00;0.67;;;;;13.59;56.68;99994.38;5010573;28;45603;-76
2021/05/22 03:49:35;;;;;;;;;2.00;1.00;;;;;13.58;56.74;99993.53;5012103;28;45879;-76
2021/05/22 03:52:00;;;;;;;;;1.00;1.00;;;;;13.59;56.77;99995.25;5011713;28;45660;-75
2021/05/22 03:54:26;;;;;;;;;1.00;1.00;;;;;13.59;56.58;100000.56;5010027;28;47304;-75
2021/05/22 03:56:51;;;;;;;;;2.33;1.00;;;;;13.62;56.64;100004.94;5009181;28;45476;-75
2021/05/22 03:59:17;;;;;;;;;1.00;0.00;;;;;13.61;56.41;100009.41;5009833;28;46853;-76
2021/05/22 04:01:42;;;;;;;;;1.00;1.00;;;;;13.62;56.55;100000.47;5013107;28;45544;-75
2021/05/22 04:04:08;;;;;;;;;1.00;1.00;;;;;13.64;56.87;100011.06;5009489;28;47714;-75
2021/05/22 04:06:33;;;;;;;;;2.00;1.00;;;;;13.65;56.22;100015.44;5009887;28;45560;-75
2021/05/22 04:08:58;;;;;;;;;1.33;1.33;;;;;13.65;56.58;100020.78;5010412;28;45770;-75
2021/05/22 04:11:24;;;;;;;;;0.00;0.00;;;;;13.61;56.68;100012.06;5012337;28;45440;-74
2021/05/22 04:13:49;;;;;;;;;0.00;0.00;;;;;13.60;56.68;100026.34;5012358;28;45942;-76
2021/05/22 04:16:15;;;;;;;;;3.00;1.00;;;;;13.60;56.54;100018.34;5023816;28;46210;-77
2021/05/22 04:18:40;;;;;;;;;1.33;1.33;;;;;13.60;56.78;100020.13;5010884;28;45846;-76
2021/05/22 04:21:06;;;;;;;;;1.67;1.00;;;;;13.62;57.14;100018.25;5009521;28;45845;-76
2021/05/22 04:23:31;;;;;;;;;2.00;2.00;;;;;13.63;56.63;100014.66;5023113;28;47371;-74
2021/05/22 04:25:57;;;;;;;;;1.00;1.00;;;;;13.62;56.64;100019.13;5011602;28;45754;-77
2021/05/22 04:28:22;;;;;;;;;1.33;1.33;;;;;13.61;56.74;100028.06;5011332;28;45656;-75
2021/05/22 04:30:47;;;;;;;;;2.33;1.67;;;;;13.59;56.76;100023.72;5009469;28;45752;-75
2021/05/22 04:33:13;;;;;;;;;2.00;1.00;;;;;13.58;56.88;100021.97;5006555;28;48405;-76
2021/05/22 04:35:38;;;;;;;;;1.00;1.00;;;;;13.55;56.86;100015.84;5025867;28;45742;-76
2021/05/22 04:38:04;;;;;;;;;1.33;1.33;;;;;13.60;57.28;100020.13;5011952;28;45392;-74
2021/05/22 04:40:29;;;;;;;;;1.67;1.67;;;;;13.62;57.19;100015.59;5011973;28;45539;-75
2021/05/22 04:42:55;;;;;;;;;1.00;1.00;;;;;13.63;57.20;100022.66;5007945;28;47569;-75
2021/05/22 04:45:20;;;;;;;;;1.00;1.00;;;;;13.65;57.05;100012.78;5010448;28;45590;-75
2021/05/22 04:47:45;;;;;;;;;1.00;1.00;;;;;13.64;57.28;100027.06;5010744;28;45543;-74
2021/05/22 04:50:13;;;;;;;;;1.67;1.67;;;;;13.61;56.63;100024.53;5012147;28;45402;-76
2021/05/22 04:52:39;;;;;;;;;1.33;1.00;;;;;13.57;56.88;100039.78;5009662;28;47714;-76
2021/05/22 04:55:06;;;;;;;;;1.00;1.00;;;;;13.58;57.05;100032.66;5008553;28;45592;-76
2021/05/22 04:57:31;;;;;;;;;1.00;1.00;;;;;13.53;57.04;100036.38;5010128;28;45456;-75
2021/05/22 04:59:56;;;;;;;;;2.00;0.67;;;;;13.55;57.49;100033.66;5010586;28;45700;-76
2021/05/22 05:02:22;;;;;;;;;1.00;1.00;;;;;13.57;57.14;100039.78;5008028;28;45595;-75
2021/05/22 05:04:48;;;;;;;;;1.00;1.00;;;;;13.52;56.99;100036.47;5009078;28;45565;-77
2021/05/22 05:07:13;;;;;;;;;1.00;1.00;;;;;13.51;56.97;100038.25;5010703;28;45680;-75
2021/05/22 05:09:39;;;;;;;;;2.00;1.33;;;;;13.59;56.95;100048.56;5010495;28;46051;-75
2021/05/22 05:12:06;;;;;;;;;1.00;1.00;;;;;13.59;57.19;100047.69;5003654;28;47250;-75
2021/05/22 05:14:32;;;;;;;;;1.00;1.00;;;;;13.57;57.20;100047.78;5007342;28;46220;-76
2021/05/22 05:16:58;;;;;;;;;1.00;0.67;;;;;13.54;57.06;100061.25;5009764;28;45546;-75
2021/05/22 05:19:27;;;;;;;;;4.33;2.00;;;;;13.52;57.65;100063.13;5012278;28;45501;-75
2021/05/22 05:21:52;;;;;;;;;1.00;1.00;;;;;13.52;57.36;100064.00;5011091;28;46341;-75
2021/05/22 05:24:18;;;;;;;;;1.00;1.00;;;;;13.53;56.90;100049.72;5010691;28;45555;-76
2021/05/22 05:26:43;;;;;;;;;0.00;0.00;;;;;13.52;57.02;100053.31;5010343;28;46044;-72
2021/05/22 05:29:08;;;;;;;;;0.00;0.00;;;;;13.54;57.45;100072.78;5024789;28;46153;-76
2021/05/22 05:31:33;;;;;;;;;0.00;0.00;;;;;13.54;57.40;100063.91;5011439;28;45643;-76
2021/05/22 05:33:59;;;;;;;;;1.00;1.00;;;;;13.59;56.97;100066.38;5011804;28;45496;-75
2021/05/22 05:36:24;;;;;;;;;0.00;0.00;;;;;13.57;57.22;100070.91;5010768;28;45513;-74
2021/05/22 05:38:50;;;;;;;;;0.00;0.00;;;;;13.55;57.28;100068.31;5006352;28;45490;-74
2021/05/22 05:41:15;;;;;;;;;4.33;3.00;;;;;13.54;57.48;100072.78;5011256;28;46487;-75
2021/05/22 05:43:40;;;;;;;;;0.00;0.00;;;;;13.52;57.10;100071.97;5010605;28;45840;-78
2021/05/22 05:46:06;;;;;;;;;2.00;1.00;;;;;13.57;57.22;100074.44;5008274;28;45914;-77
2021/05/22 05:48:31;;;;;;;;;2.00;2.00;;;;;13.57;56.90;100074.44;5014742;28;45609;-77
2021/05/22 05:50:57;;;;;;;;;1.00;1.00;;;;;13.56;57.19;100094.03;5014472;28;46402;-75
2021/05/22 05:53:22;;;;;;;;;1.00;1.00;;;;;13.57;57.22;100078.91;5012681;28;45399;-75
2021/05/22 05:55:48;;;;;;;;;2.00;2.00;;;;;13.62;56.93;100082.25;5013162;28;45717;-75
2021/05/22 05:58:13;;;;;;;;;0.00;0.00;;;;;13.65;56.96;100082.97;5012560;28;45766;-73
2021/05/22 06:00:39;;;;;;;;;1.00;1.00;;;;;13.67;56.65;100083.75;5011959;28;47849;-76
2021/05/22 06:03:05;;;;;;;;;4.50;4.50;;;;;13.67;56.33;100093.56;5011632;28;45458;-77
2021/05/22 06:05:31;;;;;;;;;1.00;1.00;;;;;13.63;56.98;100091.97;5013164;28;45787;-75
2021/05/22 06:07:56;;;;;;;;;1.00;1.00;;;;;13.60;57.40;100090.31;5012093;28;46553;-76
2021/05/22 06:10:21;;;;;;;;;1.00;1.00;;;;;13.70;56.97;100096.94;5020529;28;47274;-78
2021/05/22 06:12:47;;;;;;;;;0.00;0.00;;;;;13.75;56.87;100102.09;5011592;28;45923;-77
2021/05/22 06:17:42;;;;;;;;;1.00;1.00;;;;;13.78;56.76;100107.28;5012798;28;45494;-76
2021/05/22 06:20:08;;;;;;;;;2.00;1.33;;;;;13.73;56.68;100115.50;5012488;28;45720;-76
2021/05/22 06:22:34;;;;;;;;;1.00;1.00;;;;;13.72;56.24;100120.88;5011845;28;45451;-77
2021/05/22 06:25:00;;;;;;;;;1.00;1.00;;;;;13.77;56.69;100129.56;5013032;28;45340;-75
2021/05/22 06:27:25;;;;;;;;;3.67;2.00;;;;;13.82;56.43;100125.75;5012667;28;45807;-76
2021/05/22 06:29:51;;;;;;;;;1.00;1.00;;;;;13.83;56.54;100115.94;5013327;28;45645;-74
2021/05/22 06:32:16;;;;;;;;;1.00;1.00;;;;;13.84;56.34;100125.66;5011755;28;45450;-74
2021/05/22 06:34:41;;;;;;;;;3.00;1.00;;;;;13.88;56.14;100129.09;5011122;28;45546;-76
2021/05/22 06:37:07;;;;;;;;;0.00;0.00;;;;;13.88;56.31;100127.28;5010659;28;45652;-75
2021/05/22 06:39:32;;;;;;;;;0.67;0.67;;;;;13.95;56.03;100125.19;5012487;28;46607;-76
2021/05/22 06:41:57;;;;;;;;;1.33;1.33;;;;;13.98;55.93;100131.28;5011002;28;45702;-75
2021/05/22 06:44:26;;;;;;;;;3.67;1.67;;;;;14.00;55.56;100133.88;5011007;28;45635;-76
2021/05/22 06:46:51;;;;;;;;;2.33;1.00;;;;;14.00;55.39;100131.22;5011220;28;45696;-75
2021/05/22 06:49:18;;;;;;;;;1.00;1.00;;;;;13.95;55.03;100138.53;5011150;28;47563;-75
2021/05/22 06:51:44;;;;;;;;;2.00;0.33;;;;;13.92;55.41;100136.00;5009125;28;45520;-77
2021/05/22 06:54:10;;;;;;;;;1.00;1.00;;;;;13.94;55.35;100150.13;5004583;28;46422;-76
2021/05/22 06:56:36;;;;;;;;;2.00;0.00;;;;;13.90;54.95;100144.09;5007885;28;45528;-74
2021/05/22 06:59:01;;;;;;;;;1.00;1.00;;;;;13.89;54.86;100144.16;5012128;28;47490;-75
2021/05/22 07:01:27;;;;;;;;;1.00;1.00;;;;;13.84;54.47;100150.53;5012080;28;45545;-75
2021/05/22 07:03:54;;;;;;;;;0.33;0.33;;;;;13.85;54.55;100156.78;5012861;28;45854;-76
2021/05/22 07:06:21;;;;;;;;;1.00;1.00;;;;;13.91;54.56;100158.28;5014479;28;45403;-75
2021/05/22 07:08:46;;;;;;;;;5.00;1.00;;;;;13.95;54.24;100154.53;5015146;28;46120;-71
2021/05/22 07:11:12;;;;;;;;;0.33;0.33;;;;;13.96;54.12;100161.59;5013862;28;45838;-77
2021/05/22 07:13:37;;;;;;;;;0.00;0.00;;;;;13.99;53.93;100164.16;5014131;28;45707;-76
2021/05/22 07:16:04;;;;;;;;;1.33;1.00;;;;;14.01;53.70;100160.50;5014844;28;45976;-75
2021/05/22 07:18:29;;;;;;;;;0.00;0.00;;;;;14.01;53.67;100162.28;5014170;28;46203;-76
2021/05/22 07:20:55;;;;;;;;;1.00;1.00;;;;;14.00;53.87;100168.56;5014249;28;45576;-76
2021/05/22 07:23:20;;;;;;;;;1.00;1.00;;;;;14.01;53.32;100167.63;5013551;28;45738;-75
2021/05/22 07:25:46;;;;;;;;;1.33;1.33;;;;;14.02;52.81;100174.69;5013795;28;45522;-77
2021/05/22 07:28:14;;;;;;;;;0.00;0.00;;;;;13.98;53.03;100163.28;5012550;28;47986;-76
2021/05/22 07:30:40;;;;;;;;;0.00;0.00;;;;;14.02;52.55;100174.69;5014508;28;45596;-76
2021/05/22 07:33:06;;;;;;;;;0.00;0.00;;;;;14.05;52.49;100175.41;5013660;28;45403;-77
2021/05/22 07:35:31;;;;;;;;;7.00;2.00;;;;;14.07;52.57;100178.00;5013535;28;45453;-75
2021/05/22 07:37:56;;;;;;;;;1.00;1.00;;;;;14.13;52.13;100175.94;5009041;28;46029;-77
2021/05/22 07:40:22;;;;;;;;;2.67;1.00;;;;;14.18;50.69;100180.19;5015273;28;45620;-77
2021/05/22 07:42:48;;;;;;;;;0.00;0.00;;;;;14.16;50.76;100190.09;5030352;28;45645;-79
2021/05/22 07:45:14;;;;;;;;;1.33;0.00;;;;;14.15;50.56;100199.88;5013786;28;45630;-77
2021/05/22 07:47:41;;;;;;;;;0.00;0.00;;;;;14.19;50.28;100213.94;5015746;28;48519;-76
2021/05/22 07:50:07;;;;;;;;;1.33;1.33;;;;;14.21;49.86;100212.06;5010058;28;45708;-76
2021/05/22 07:52:33;;;;;;;;;1.00;0.00;;;;;14.22;50.01;100208.47;5011932;28;45536;-77
2021/05/22 07:54:58;;;;;;;;;0.00;0.00;;;;;14.21;50.18;100204.94;5014219;28;45609;-77
2021/05/22 07:57:24;;;;;;;;;1.00;1.00;;;;;14.31;50.11;100229.41;5015576;28;46333;-77
2021/05/22 07:59:49;;;;;;;;;0.00;0.00;;;;;14.35;49.92;100215.00;5019927;28;45537;-76
2021/05/22 08:02:16;;;;;;;;;0.67;0.67;;;;;14.35;49.98;100220.34;5013532;28;45517;-76
2021/05/22 08:04:42;;;;;;;;;1.33;0.00;;;;;14.33;50.15;100222.22;5016312;28;45497;-77
2021/05/22 08:07:08;;;;;;;;;1.00;0.00;;;;;14.36;50.23;100214.94;5015364;28;46669;-75
2021/05/22 08:09:33;;;;;;;;;0.00;0.00;;;;;14.36;50.15;100219.44;5014182;28;45515;-76
2021/05/22 08:11:59;;;;;;;;;1.00;1.00;;;;;14.36;50.25;100222.97;5012573;28;45550;-76
2021/05/22 08:14:24;;;;;;;;;0.00;0.00;;;;;14.34;50.70;100227.47;5013674;28;45482;-76
2021/05/22 08:16:49;;;;;;;;;1.67;1.00;;;;;14.32;50.93;100226.69;5015287;28;48024;-76
2021/05/22 08:19:15;;;;;;;;;1.00;1.00;;;;;14.32;51.39;100236.50;5012358;28;46380;-77
2021/05/22 08:21:41;;;;;;;;;1.00;1.00;;;;;14.36;51.75;100240.78;5012361;28;45561;-78
2021/05/22 08:24:08;;;;;;;;;2.00;1.00;;;;;14.34;52.25;100238.16;5010934;28;45548;-75
2021/05/22 08:26:34;;;;;;;;;1.00;1.00;;;;;14.27;52.38;100243.84;5014334;28;46228;-77
2021/05/22 08:29:01;;;;;;;;;3.00;3.00;;;;;14.27;52.22;100227.84;5011599;28;45640;-76
2021/05/22 08:31:26;;;;;;;;;0.00;0.00;;;;;14.27;52.62;100228.69;5014302;28;45461;-77
2021/05/22 08:33:52;;;;;;;;;1.00;1.00;;;;;14.33;52.48;100228.41;5014861;28;45580;-77
2021/05/22 08:36:17;;;;;;;;;2.00;1.00;;;;;14.43;52.65;100243.09;5012775;28;46820;-77
2021/05/22 08:38:43;;;;;;;;;1.00;1.00;;;;;14.54;52.32;100236.44;5012895;28;45351;-78
2021/05/22 08:41:09;;;;;;;;;0.00;0.00;;;;;14.56;52.23;100232.75;5029956;28;45785;-77
2021/05/22 08:43:35;;;;;;;;;2.33;1.00;;;;;14.55;52.98;100251.50;5014617;28;45822;-75
2021/05/22 08:46:01;;;;;;;;;2.67;2.67;;;;;14.53;52.68;100234.69;5018415;28;46481;-75
2021/05/22 08:48:27;;;;;;;;;1.00;1.00;;;;;14.64;52.63;100251.97;5014786;28;45624;-74
2021/05/22 08:50:53;;;;;;;;;2.00;1.33;;;;;14.66;52.10;100250.09;5011068;28;45459;-77
2021/05/22 08:53:18;;;;;;;;;1.00;1.00;;;;;14.65;51.76;100245.69;5012241;28;45533;-77
2021/05/22 08:55:44;;;;;;;;;1.00;1.00;;;;;14.70;51.26;100237.44;5013951;28;46284;-76
2021/05/22 08:58:10;;;;;;;;;1.00;1.00;;;;;14.71;51.14;100237.38;5012250;28;45594;-77
2021/05/22 09:00:39;;;;;;;;;4.33;1.00;;;;;14.63;51.24;100233.34;5012137;28;45920;-75
2021/05/22 09:03:14;;;;;;;;;1.00;1.00;;;;;14.71;50.76;100263.22;5012355;28;45505;-75
2021/05/22 09:05:44;;;;;;;;;1.00;1.00;;;;;14.68;50.84;100274.06;5016097;28;46181;-76
2021/05/22 09:08:13;;;;;;;;;0.00;0.00;;;;;14.65;50.24;100256.38;5011398;28;45821;-74
2021/05/22 09:10:46;;;;;;;;;2.00;2.00;;;;;14.73;50.38;100248.00;5015776;28;45440;-77
2021/05/22 09:13:18;;;;;;;;;2.33;1.00;;;;;14.82;50.56;100255.59;5013816;28;45501;-78
2021/05/22 09:15:46;;;;;;;;;1.33;1.33;;;;;14.95;50.04;100253.19;5012027;28;48196;-79
2021/05/22 09:18:13;;;;;;;;;0.00;0.00;;;;;15.02;50.37;100254.66;5011419;28;45513;-76
2021/05/22 09:20:43;;;;;;;;;1.00;1.00;;;;;15.11;50.42;100269.38;5009569;28;45594;-77
2021/05/22 09:23:29;;;;;;;;;2.00;0.00;;;;;15.20;50.33;100261.78;5009526;28;45937;-78
2021/05/22 09:26:01;;;;;;;;;0.00;0.00;;;;;15.21;50.35;100268.88;5011053;28;46901;-77
2021/05/22 09:28:37;;;;;;;;;1.00;1.00;;;;;15.18;50.33;100265.47;5009524;28;45588;-78
2021/05/22 09:31:05;;;;;;;;;1.00;1.00;;;;;15.15;50.86;100271.84;5012114;28;46748;-77
2021/05/22 09:33:35;;;;;;;;;1.00;1.00;;;;;15.15;51.07;100279.00;5010769;28;45495;-78
2021/05/22 09:36:00;;;;;;;;;0.67;0.67;;;;;15.10;50.60;100273.00;5010373;28;48388;-76
2021/05/22 09:38:40;;;;;;;;;0.00;0.00;;;;;15.13;51.18;100272.88;5011299;28;45700;-73
2021/05/22 09:41:21;;;;;;;;;0.67;0.67;;;;;15.21;51.26;100276.88;5008136;28;45311;-77
2021/05/22 09:44:15;;;;;;;;;2.00;2.00;;;;;15.25;51.02;100270.47;5011658;28;45501;-78
2021/05/22 09:46:43;;;;;;;;;0.00;0.00;;;;;15.25;51.04;100261.59;5010467;28;46729;-77
2021/05/22 09:49:09;;;;;;;;;1.33;1.33;;;;;15.39;50.77;100280.50;5010914;28;45854;-77
2021/05/22 09:51:57;;;;;;;;;1.00;1.00;;;;;15.39;50.18;100272.47;5009457;28;45611;-77
2021/05/22 09:54:42;;;;;;;;;1.00;0.00;;;;;15.42;50.20;100279.47;5011648;28;46049;-76
2021/05/22 09:57:42;;;;;;;;;0.67;0.00;;;;;15.46;50.20;100276.56;5012818;28;46416;-77
2021/05/22 10:00:07;;;;;;;;;0.00;0.00;;;;;15.50;50.03;100275.50;5002171;28;45675;-76
2021/05/22 10:02:57;;;;;;;;;0.67;0.67;;;;;15.57;49.74;100270.69;5011585;28;45600;-77
2021/05/22 10:05:31;;;;;;;;;3.00;0.67;;;;;15.69;49.24;100275.47;5009759;28;45673;-78
2021/05/22 10:07:57;;;;;;;;;0.00;0.00;;;;;15.76;49.07;100263.53;5009119;28;46193;-75
2021/05/22 10:10:46;;;;;;;;;1.00;1.00;;;;;15.84;49.42;100274.72;5009955;28;45383;-77
2021/05/22 10:13:13;;;;;;;;;0.00;0.00;;;;;15.99;48.44;100264.16;5007396;28;45500;-74
2021/05/22 10:15:39;;;;;;;;;0.00;0.00;;;;;16.06;48.87;100274.50;5024841;28;45569;-77
2021/05/22 10:18:08;;;;;;;;;1.00;1.00;;;;;16.16;48.10;100280.25;5007618;28;46173;-76
2021/05/22 10:20:37;;;;;;;;;0.00;0.00;;;;;16.24;48.16;100275.34;4999114;28;46077;-77
2021/05/22 10:23:03;;;;;;;;;0.00;0.00;;;;;16.35;47.31;100278.31;5001415;28;45854;-77
2021/05/22 10:25:29;;;;;;;;;1.00;1.00;;;;;16.41;46.74;100275.34;5019973;28;45612;-74
2021/05/22 10:27:55;;;;;;;;;1.67;0.00;;;;;16.45;46.13;100278.72;5009318;28;48025;-77
2021/05/22 10:30:21;;;;;;;;;0.67;0.67;;;;;16.49;46.49;100283.81;5024300;28;46320;-78
2021/05/22 10:32:47;;;;;;;;;0.00;0.00;;;;;16.54;45.47;100272.88;5013687;28;45542;-75
2021/05/22 10:35:24;;;;;;;;;0.33;0.33;;;;;16.54;46.31;100270.19;5011803;28;45736;-74
2021/05/22 10:37:51;;;;;;;;;0.00;0.00;;;;;16.55;45.57;100288.00;5017319;28;48622;-74
2021/05/22 10:40:22;;;;;;;;;0.00;0.00;;;;;16.63;46.23;100279.53;5017199;28;46183;-73
2021/05/22 10:42:56;;;;;;;;;0.00;0.00;;;;;16.71;46.41;100285.41;5013114;28;45833;-72
2021/05/22 10:45:27;;;;;;;;;0.67;0.67;;;;;16.76;45.90;100278.81;5016391;28;45479;-75
2021/05/22 10:47:54;;;;;;;;;0.33;0.33;;;;;16.75;46.22;100281.59;4999815;28;46480;-72
2021/05/22 10:50:41;;;;;;;;;3.00;3.00;;;;;16.75;46.25;100278.91;5012722;28;45650;-75
2021/05/22 10:53:21;;;;;;;;;4.67;4.00;;;;;16.71;46.17;100290.75;5011978;28;45734;-74
2021/05/22 10:56:05;;;;;;;;;2.67;2.67;;;;;16.69;46.19;100272.09;5022085;28;45501;-79
2021/05/22 10:58:31;;;;;;;;;1.00;1.00;;;;;16.69;46.31;100279.25;5009276;28;49701;-74
2021/05/22 11:01:25;;;;;;;;;2.67;2.00;;;;;16.68;45.23;100283.75;5016473;28;45376;-77
2021/05/22 11:04:08;;;;;;;;;1.00;0.67;;;;;16.68;45.31;100289.09;5013286;28;45861;-77
2021/05/22 11:06:45;;;;;;;;;0.00;0.00;;;;;16.68;45.60;100281.06;5013549;28;45487;-76
2021/05/22 11:09:26;;;;;;;;;0.00;0.00;;;;;16.75;45.32;100274.41;5012344;28;48574;-76
2021/05/22 11:12:20;;;;;;;;;1.67;0.00;;;;;16.77;44.96;100277.91;5011999;28;45365;-75
2021/05/22 11:14:50;;;;;;;;;1.67;1.00;;;;;16.72;45.06;100265.69;4982948;28;45504;-77
2021/05/22 11:17:22;;;;;;;;;0.00;0.00;;;;;16.63;45.92;100299.16;5025788;28;45656;-79
2021/05/22 11:19:57;;;;;;;;;0.33;0.33;;;;;16.45;46.80;100324.25;5001028;28;47218;-76
2021/05/22 11:22:23;;;;;;;;;0.00;0.00;;;;;16.33;48.85;100316.84;5030915;28;45441;-76
2021/05/22 11:25:11;;;;;;;;;0.00;0.00;;;;;16.16;49.89;100315.91;5011453;28;45516;-75
2021/05/22 11:27:43;;;;;;;;;0.00;0.00;;;;;16.00;50.41;100298.88;5007867;28;46229;-79
2021/05/22 11:30:10;;;;;;;;;0.00;0.00;;;;;16.01;50.27;100299.78;5011595;28;48345;-75
2021/05/22 11:32:57;;;;;;;;;0.00;0.00;;;;;16.13;50.50;100304.47;5012226;28;45453;-76